Aeroporto :
LOGIN :

Iscrizione | Disclaimer

   EN    FR    IT 

 










Sommario :    VFR   VFR Marginale   IFR   IFR Intensivo   IFR Molto Intensivo
Visibilità : 
Base nubi : 
>= 8 km
>= 3000ft
5 / 8 km
1000 / 3000 ft
1500m / 5 km
500 / 1000 ft
800 / 1500m
200 / 500 ft
< 800m
< 200 ft
Simboli :   Temporali  Nebbia  Neve Forte  Precipitazioni Forti  Vento > 20 kt
SIGMETs :   Varie  Temporali  Ghiacco  Turbolenza  Onda orograficha  Ceneri Vulcaniche






- Altitudine del aeroporto : 23 ft
- Codice IATA : XFW


EDHI - Hamburg Finkenwerder

ULTIMO METAR :
  • 272050Z AUTO 25015G28KT 220V290 9999 // SCT015/// BKN049/// OVC093/// 17/14 Q1016

METARs OBSOLETI :
  • 272020Z AUTO 22008KT 180V260 9999 // FEW030/// OVC096/// 18/16 Q1015
  • 271950Z AUTO 20007KT 160V240 9999 // FEW051/// BKN095/// OVC110/// 18/16 Q1015
  • 271920Z AUTO 16004KT 110V210 9999 // FEW051/// OVC099/// 18/16 Q1014
  • 271850Z AUTO 17004KT 130V220 9999 // FEW077/// OVC090/// 19/16 Q1014
  • 271820Z AUTO 16005KT 120V190 9999 // SCT076/// BKN098/// OVC120/// 19/16 Q1014

Previsioni scadute.



MetMap, La meteo Aeronautica in un colpo d'occhio ! - Copyright ORBIFLY Dicembre 2007 - Disclaimer

ORBIFLY MET'MAP TEAM :

Programmazione e sviluppo : Alexandra Zaïnal
Concezione : Baudouin d'Aumeries
Aiuto per la programmazione : Marc-Olivier Méhu
Supporto tecnico e logistico : Manuel Goepfert
Aiuto per la traduzione : Arnaldo La Scala

Contatto : metmap@orbifly.com




FONTI E CREDITI :

   NOAA